WetterOnline ( http://www.wetteronline.de )

Wetter aktuell Prenzlau

Aktuelles Wetter: Grünow (57m)

6-stündlich | Neueste Meldungen
Ortszeit Temperatur Wetter
Di, 23.05. 14:00 22.1° C leicht bewölkt
Di, 23.05. 8:00 15.8° C wolkig
Di, 23.05. 2:00 8.2° C wolkig
Mo, 22.05. 20:00 19.3° C leicht bewölkt
Ortszeit Temperatur Wetter
Di, 23.05. 18:30 21.8° C wolkig
Di, 23.05. 18:00 22.4° C wolkig
Di, 23.05. 17:30 23.0° C wolkig
Di, 23.05. 17:00 23.2° C bedeckt
Di, 23.05. 16:30 22.4° C bedeckt
Di, 23.05. 16:00 23.4° C wolkig
Ortszeit Relative Feuchte Sichtweite
Di, 23.05. 14:00 45% 40 km
Di, 23.05. 8:00 74% 28 km
Di, 23.05. 2:00 95% 11 km
Mo, 22.05. 20:00 55% 40 km
Ortszeit Relative Feuchte Sichtweite
Di, 23.05. 18:30 58% 40 km
Di, 23.05. 18:00 45% 40 km
Di, 23.05. 17:30 40% 35 km
Di, 23.05. 17:00 36% 20 km
Di, 23.05. 16:30 41% 18 km
Di, 23.05. 16:00 39% 30 km
Ortszeit Niederschlagsmenge Niederschlagsart
Di, 23.05. 14:00 0,0 l/m2 in 6 Std. -
Di, 23.05. 8:00 0,0 l/m2 in 12 Std. -
Di, 23.05. 2:00 0,0 l/m2 in 6 Std. -
Mo, 22.05. 20:00 0,0 l/m2 in 12 Std. -
Ortszeit Niederschlagsmenge Niederschlagsart
Di, 23.05. 18:30 keine Meldung -
Di, 23.05. 18:00 0,0 l/m2 in 1 Std. -
Di, 23.05. 17:30 keine Meldung -
Di, 23.05. 17:00 0,0 l/m2 in 1 Std. -
Di, 23.05. 16:30 keine Meldung -
Di, 23.05. 16:00 0,0 l/m2 in 1 Std. -
Ortszeit Stärke Spitze Richtung
km/h Bft. km/h Grad Sektor
Di, 23.05. 14:00 7 2 22 170° S
Di, 23.05. 8:00 0 0 11 - -
Di, 23.05. 2:00 4 1 18 120° SO
Mo, 22.05. 20:00 4 1 14 320° NW
Ortszeit Stärke Spitze Richtung
km/h Bft. km/h Grad Sektor
Di, 23.05. 18:30 4 1 7 220° SW
Di, 23.05. 18:00 7 2 14 240° SW
Di, 23.05. 17:30 7 2 14 230° SW
Di, 23.05. 17:00 7 2 15 220° SW
Di, 23.05. 16:30 11 2 14 240° SW
Di, 23.05. 16:00 11 2 18 200° S
Ortszeit Untergrenze Bedeckung Gattung
total tief tief mittel hoch
Di, 23.05. 14:00 2400 m 3/8 3/8 - - -
Di, 23.05. 8:00 2100 m 7/8 2/8 - - -
Di, 23.05. 2:00 9000 m 7/8 0/8 - - -
Mo, 22.05. 20:00 1800 m 2/8 2/8 - - -
Ortszeit Bedeckungsgrad in Achtel und Wolkenuntergrenze
Di, 23.05. 18:30 2(2100m) 8(4200m)
Di, 23.05. 18:00 2(2400m) 8(4200m) 8(8700m)
Di, 23.05. 17:30 1(2100m) 8(3900m) 8(7500m)
Di, 23.05. 17:00 8(3900m) 8(5400m)
Di, 23.05. 16:30 8(3900m) 8(5400m)
Di, 23.05. 16:00 2(2100m) 8(3900m)
Ortszeit Luftdruck NN (hPa) Tendenz (hPa in 3 Std.)
Di, 23.05. 14:00 1015 - 1,2
Di, 23.05. 8:00 1017 - 0,3
Di, 23.05. 2:00 1018 - 0,9
Mo, 22.05. 20:00 1019 - 1,4
Ortszeit Luftdruck NN (hPa) Tendenz (hPa in 3 Std.)
Di, 23.05. 18:30 1013 - 1,4
Di, 23.05. 18:00 1013 - 1,6
Di, 23.05. 17:30 1013 - 1,4
Di, 23.05. 17:00 1014 - 1,4
Di, 23.05. 16:30 1014 - 1,4
Di, 23.05. 16:00 1014 - 1,4
Ortszeit Schneehöhe (cm)
Di, 23.05. 14:00 -
Di, 23.05. 8:00 -
Di, 23.05. 2:00 -
Mo, 22.05. 20:00 -
Ortszeit Schneehöhe (cm)
Di, 23.05. 18:30 -
Di, 23.05. 18:00 -
Di, 23.05. 17:30 -
Di, 23.05. 17:00 -
Di, 23.05. 16:30 -
Di, 23.05. 16:00 -
Link zu dieser Seite / Seite empfehlen

Das Wetter in ...